Time;durP1;ratioP1;P1;durP2;ratioP2;P2;SDS_P1;SDS_P2;PMS_P1;PMS_P2;Temp;Humidity;BMP_temperature;BMP_pressure;BME280_temperature;BME280_humidity;BME280_pressure;Samples;Min_cycle;Max_cycle;Signal;HPM_P1;HPM_P2
2023/11/24 00:01:43;;;;;;;39.25;4.53;;;10.10;99.90;;;;;;5037787;28;20166;-83
2023/11/24 00:04:09;;;;;;;35.65;3.50;;;10.10;99.90;;;;;;5037129;28;20186;-82
2023/11/24 00:06:37;;;;;;;37.73;4.30;;;10.10;99.90;;;;;;5019637;28;20189;-82
2023/11/24 00:09:03;;;;;;;32.92;2.83;;;10.10;99.90;;;;;;5019118;28;20193;-82
2023/11/24 00:11:29;;;;;;;37.70;4.40;;;10.10;99.90;;;;;;5037020;28;20507;-81
2023/11/24 00:13:54;;;;;;;35.83;3.60;;;10.10;99.90;;;;;;5037070;28;20190;-81
2023/11/24 00:16:20;;;;;;;37.40;5.00;;;10.00;99.90;;;;;;5036713;28;20190;-83
2023/11/24 00:18:46;;;;;;;38.78;4.55;;;9.90;99.90;;;;;;5036911;28;20212;-82
2023/11/24 00:21:12;;;;;;;38.07;5.33;;;9.90;99.90;;;;;;5036567;28;20158;-83
2023/11/24 00:23:38;;;;;;;38.03;4.37;;;9.90;99.90;;;;;;5019532;28;20443;-82
2023/11/24 00:26:06;;;;;;;32.67;3.43;;;9.90;99.90;;;;;;5036761;28;20766;-82
2023/11/24 00:28:33;;;;;;;35.22;3.63;;;9.90;99.90;;;;;;5019070;28;20170;-83
2023/11/24 00:30:59;;;;;;;36.10;4.72;;;9.80;99.90;;;;;;5036350;28;20184;-82
2023/11/24 00:33:26;;;;;;;41.25;3.88;;;9.80;99.90;;;;;;5036847;28;20193;-82
2023/11/24 00:35:52;;;;;;;33.63;3.70;;;9.80;99.90;;;;;;5036200;28;20162;-82
2023/11/24 00:38:19;;;;;;;34.70;3.93;;;9.80;99.90;;;;;;5018235;28;20180;-82
2023/11/24 00:40:44;;;;;;;32.75;3.33;;;9.80;99.90;;;;;;5036876;28;20182;-83
2023/11/24 00:43:10;;;;;;;35.97;3.73;;;9.80;99.90;;;;;;5018524;28;20662;-83
2023/11/24 00:45:37;;;;;;;37.20;4.30;;;9.70;99.90;;;;;;5036282;28;20216;-82
2023/11/24 00:48:06;;;;;;;40.67;4.72;;;9.70;99.90;;;;;;5036202;28;20185;-85
2023/11/24 00:50:32;;;;;;;42.30;5.65;;;9.70;99.90;;;;;;5036560;28;20169;-84
2023/11/24 00:52:58;;;;;;;36.15;4.22;;;9.70;99.90;;;;;;5036275;28;20606;-85
2023/11/24 00:55:30;;;;;;;35.53;4.20;;;9.70;99.90;;;;;;5037193;28;20186;-84
2023/11/24 00:57:57;;;;;;;37.47;3.85;;;9.70;99.90;;;;;;5018959;28;20184;-85
2023/11/24 01:00:25;;;;;;;45.10;3.95;;;9.70;99.90;;;;;;5019888;28;20193;-84
2023/11/24 01:03:12;;;;;;;37.97;4.32;;;9.70;99.90;;;;;;5019368;28;20208;-85
2023/11/24 01:05:37;;;;;;;41.83;4.25;;;9.80;99.90;;;;;;5036614;28;20349;-85
2023/11/24 01:08:03;;;;;;;35.83;4.40;;;9.70;99.90;;;;;;5038260;28;20170;-85
2023/11/24 01:10:29;;;;;;;34.67;3.60;;;9.70;99.90;;;;;;5038554;28;20663;-85
2023/11/24 01:12:54;;;;;;;43.83;5.17;;;9.70;99.90;;;;;;5019357;28;20197;-86
2023/11/24 01:15:23;;;;;;;35.40;3.73;;;9.70;99.90;;;;;;5037710;28;20239;-86
2023/11/24 01:17:48;;;;;;;34.05;3.20;;;9.70;99.90;;;;;;5038041;28;20162;-84
2023/11/24 01:20:16;;;;;;;35.70;3.93;;;9.70;99.90;;;;;;5037503;28;20216;-84
2023/11/24 01:22:45;;;;;;;37.30;4.22;;;9.60;99.90;;;;;;5037371;28;20228;-85
2023/11/24 01:25:11;;;;;;;30.77;3.63;;;9.60;99.90;;;;;;5038770;28;20205;-85
2023/11/24 01:27:37;;;;;;;34.10;3.80;;;9.60;99.90;;;;;;5020836;28;20252;-85
2023/11/24 01:30:07;;;;;;;38.00;4.03;;;9.60;99.90;;;;;;5038044;28;20193;-85
2023/11/24 01:32:32;;;;;;;38.67;3.90;;;9.60;99.90;;;;;;5038069;28;20448;-85
2023/11/24 01:34:58;;;;;;;32.27;4.20;;;9.60;99.90;;;;;;5039083;28;20180;-86
2023/11/24 01:37:24;;;;;;;34.50;4.30;;;9.70;99.90;;;;;;5039219;28;20158;-86
2023/11/24 01:39:53;;;;;;;33.43;4.60;;;9.60;99.90;;;;;;5040225;28;20169;-86
2023/11/24 01:42:19;;;;;;;27.55;2.95;;;9.70;99.90;;;;;;5038839;28;20631;-86
2023/11/24 01:44:45;;;;;;;28.53;2.87;;;9.70;99.90;;;;;;5022099;28;20296;-85
2023/11/24 01:47:11;;;;;;;38.67;3.97;;;9.70;99.90;;;;;;5039684;28;20412;-85
2023/11/24 01:49:38;;;;;;;28.73;3.15;;;9.70;99.90;;;;;;5021676;28;20182;-85
2023/11/24 01:52:05;;;;;;;29.35;3.72;;;9.70;99.90;;;;;;5038210;28;20216;-85
2023/11/24 01:54:36;;;;;;;29.75;3.50;;;9.70;99.90;;;;;;5038314;28;20185;-85
2023/11/24 01:57:06;;;;;;;33.63;4.68;;;9.70;99.90;;;;;;5019930;28;20158;-85
2023/11/24 01:59:32;;;;;;;38.60;3.92;;;9.60;99.90;;;;;;5038078;28;20196;-85
2023/11/24 02:01:59;;;;;;;29.95;3.10;;;9.60;99.90;;;;;;5037524;28;20170;-85
2023/11/24 02:04:25;;;;;;;32.35;4.22;;;9.60;99.90;;;;;;5037460;28;20214;-85
2023/11/24 02:06:51;;;;;;;36.05;5.50;;;9.60;99.90;;;;;;5037683;28;20530;-85
2023/11/24 02:09:18;;;;;;;32.28;3.70;;;9.60;99.90;;;;;;5019234;28;20741;-85
2023/11/24 02:11:43;;;;;;;31.42;3.40;;;9.50;99.90;;;;;;5036594;28;20635;-85
2023/11/24 02:14:09;;;;;;;34.47;3.30;;;9.60;99.90;;;;;;5019038;28;20190;-85
2023/11/24 02:16:35;;;;;;;33.97;4.03;;;9.50;99.90;;;;;;5035314;28;20397;-81
2023/11/24 02:19:01;;;;;;;28.17;2.70;;;9.40;99.90;;;;;;5034826;28;20401;-81
2023/11/24 02:21:27;;;;;;;26.00;3.23;;;9.30;99.90;;;;;;5034366;28;20532;-82
2023/11/24 02:23:53;;;;;;;32.03;3.70;;;8.90;99.90;;;;;;5034234;28;20425;-82
2023/11/24 02:26:19;;;;;;;28.90;2.78;;;8.80;99.90;;;;;;5034755;28;20166;-82
2023/11/24 02:28:44;;;;;;;32.70;2.83;;;8.70;99.90;;;;;;5017093;28;20169;-82
2023/11/24 02:31:11;;;;;;;37.60;4.10;;;8.60;99.90;;;;;;5035051;28;20408;-81
2023/11/24 02:33:40;;;;;;;33.78;3.30;;;8.60;99.90;;;;;;5034574;28;20459;-81
2023/11/24 02:36:08;;;;;;;31.50;3.88;;;8.70;99.90;;;;;;5034882;28;20556;-81
2023/11/24 02:38:34;;;;;;;36.55;3.95;;;8.80;99.90;;;;;;5034830;28;20162;-81
2023/11/24 02:41:00;;;;;;;31.98;3.20;;;8.80;99.90;;;;;;5035410;28;20193;-82
2023/11/24 02:43:27;;;;;;;29.03;2.60;;;8.80;99.90;;;;;;5017829;28;20193;-82
2023/11/24 02:45:53;;;;;;;34.03;3.50;;;8.80;99.90;;;;;;5035250;28;20193;-82
2023/11/24 02:48:18;;;;;;;32.50;2.73;;;8.70;99.90;;;;;;5035583;28;20249;-82
2023/11/24 02:50:44;;;;;;;26.50;2.50;;;8.80;99.90;;;;;;5035154;28;20170;-83
2023/11/24 02:53:14;;;;;;;33.57;3.50;;;8.80;99.90;;;;;;5035123;28;20200;-83
2023/11/24 02:55:43;;;;;;;32.55;3.70;;;8.80;99.90;;;;;;5035228;28;20146;-83
2023/11/24 02:58:09;;;;;;;29.90;2.65;;;8.80;99.90;;;;;;5035025;28;20189;-83
2023/11/24 03:00:37;;;;;;;40.72;3.13;;;8.80;99.90;;;;;;5035543;28;20169;-83
2023/11/24 03:03:04;;;;;;;35.75;4.18;;;8.70;99.90;;;;;;5035888;28;20520;-83
2023/11/24 03:05:34;;;;;;;31.23;3.03;;;8.70;99.90;;;;;;5035333;28;20173;-84
2023/11/24 03:08:00;;;;;;;32.13;3.00;;;8.80;99.90;;;;;;5017895;28;20170;-84
2023/11/24 03:10:25;;;;;;;26.47;2.57;;;8.70;99.90;;;;;;5035530;28;20177;-84
2023/11/24 03:12:54;;;;;;;36.00;3.23;;;8.70;99.90;;;;;;5035303;28;20197;-84
2023/11/24 03:15:20;;;;;;;30.63;2.60;;;8.60;99.90;;;;;;5035266;28;20324;-84
2023/11/24 03:17:46;;;;;;;40.03;3.33;;;8.60;99.90;;;;;;5035790;28;20189;-83
2023/11/24 03:20:13;;;;;;;34.10;3.10;;;8.60;99.90;;;;;;5035137;28;20162;-84
2023/11/24 03:22:39;;;;;;;25.40;2.45;;;8.60;99.90;;;;;;5035673;28;20216;-83
2023/11/24 03:25:07;;;;;;;31.55;3.00;;;8.60;99.90;;;;;;5035351;28;20185;-84
2023/11/24 03:27:33;;;;;;;29.50;2.65;;;8.50;99.90;;;;;;5037664;28;20185;-84
2023/11/24 03:29:58;;;;;;;34.53;2.53;;;8.50;99.90;;;;;;5039610;28;20169;-84
2023/11/24 03:32:27;;;;;;;27.10;2.77;;;8.50;99.90;;;;;;5038603;28;20194;-84
2023/11/24 03:34:55;;;;;;;32.22;3.67;;;8.50;99.90;;;;;;5021108;28;20182;-84
2023/11/24 03:37:21;;;;;;;30.52;2.83;;;8.40;99.90;;;;;;5039391;28;20158;-84
2023/11/24 03:39:47;;;;;;;34.77;2.93;;;8.40;99.90;;;;;;5038848;28;20162;-84
2023/11/24 03:42:13;;;;;;;27.70;2.27;;;8.30;99.90;;;;;;5038972;28;20409;-84
2023/11/24 03:44:39;;;;;;;24.80;2.03;;;8.30;99.90;;;;;;5038581;28;20212;-84
2023/11/24 03:47:07;;;;;;;27.67;2.90;;;8.30;99.90;;;;;;5038370;28;20169;-84
2023/11/24 03:49:33;;;;;;;29.25;2.38;;;8.30;99.90;;;;;;5038869;28;20582;-84
2023/11/24 03:51:59;;;;;;;32.97;3.60;;;8.30;99.90;;;;;;5020924;28;20198;-84
2023/11/24 03:54:25;;;;;;;30.52;2.53;;;8.30;99.90;;;;;;5021539;28;20200;-84
2023/11/24 03:56:54;;;;;;;27.00;2.70;;;8.30;99.90;;;;;;5039146;28;20248;-84
2023/11/24 03:59:22;;;;;;;29.10;2.45;;;8.30;99.90;;;;;;5039631;28;20403;-84
2023/11/24 04:01:48;;;;;;;29.70;2.50;;;8.30;99.90;;;;;;5038513;28;20169;-84
2023/11/24 04:04:14;;;;;;;31.83;3.07;;;8.20;99.90;;;;;;5038762;28;20186;-84
2023/11/24 04:06:40;;;;;;;27.10;2.90;;;8.30;99.90;;;;;;5020948;28;20204;-84
2023/11/24 04:09:05;;;;;;;25.33;2.20;;;8.30;99.90;;;;;;5038546;28;20200;-83
2023/11/24 04:11:31;;;;;;;33.47;4.13;;;8.30;99.90;;;;;;5038352;28;20169;-84
2023/11/24 04:13:57;;;;;;;29.53;2.90;;;8.30;99.90;;;;;;5038183;28;20196;-84
2023/11/24 04:16:23;;;;;;;33.00;3.30;;;8.40;99.90;;;;;;5038200;28;20169;-84
2023/11/24 04:18:49;;;;;;;23.90;2.40;;;8.30;99.90;;;;;;5020775;28;20170;-84
2023/11/24 04:21:16;;;;;;;28.03;2.73;;;8.40;99.90;;;;;;5038276;28;20600;-83
2023/11/24 04:23:46;;;;;;;30.27;2.20;;;8.30;99.90;;;;;;5038334;28;20425;-84
2023/11/24 04:26:11;;;;;;;25.53;2.30;;;8.40;99.90;;;;;;5021328;28;20170;-84
2023/11/24 04:28:40;;;;;;;25.40;2.60;;;8.40;99.90;;;;;;5038270;28;20657;-84
2023/11/24 04:31:06;;;;;;;22.17;1.92;;;8.30;99.90;;;;;;5038286;28;20166;-84
2023/11/24 04:33:32;;;;;;;25.10;2.07;;;8.40;99.90;;;;;;5038760;28;20217;-84
2023/11/24 04:36:01;;;;;;;25.92;3.17;;;8.40;99.90;;;;;;5038060;28;20166;-84
2023/11/24 04:38:32;;;;;;;27.30;2.30;;;8.40;99.90;;;;;;5037891;28;20173;-84
2023/11/24 04:41:01;;;;;;;27.75;2.67;;;8.40;99.90;;;;;;5021175;28;20162;-85
2023/11/24 04:43:30;;;;;;;35.38;3.00;;;8.40;99.90;;;;;;5020627;28;20271;-84
2023/11/24 04:45:56;;;;;;;28.95;2.65;;;8.40;99.90;;;;;;5019960;28;20194;-84
2023/11/24 04:48:23;;;;;;;30.60;2.90;;;8.40;99.90;;;;;;5037737;28;20176;-84
2023/11/24 04:50:49;;;;;;;31.30;3.28;;;8.40;99.90;;;;;;5037728;28;20162;-84
2023/11/24 04:53:15;;;;;;;25.17;2.43;;;8.40;99.90;;;;;;5038244;28;20255;-84
2023/11/24 04:55:41;;;;;;;26.13;2.40;;;8.40;99.90;;;;;;5038504;28;20405;-84
2023/11/24 04:58:10;;;;;;;32.38;3.08;;;8.40;99.90;;;;;;5037840;28;20161;-84
2023/11/24 05:00:36;;;;;;;29.67;2.75;;;8.30;99.90;;;;;;5019807;28;20257;-84
2023/11/24 05:03:01;;;;;;;25.50;2.60;;;8.40;99.90;;;;;;5038127;28;20197;-84
2023/11/24 05:05:30;;;;;;;33.53;2.77;;;8.40;99.90;;;;;;5037894;28;20728;-84
2023/11/24 05:07:59;;;;;;;25.20;2.10;;;8.30;99.90;;;;;;5019843;28;20173;-83
2023/11/24 05:10:25;;;;;;;26.48;2.40;;;8.30;99.90;;;;;;5037123;28;20251;-84
2023/11/24 05:12:51;;;;;;;26.90;2.63;;;8.20;99.90;;;;;;5019301;28;20667;-84
2023/11/24 05:15:16;;;;;;;30.63;2.03;;;8.20;99.90;;;;;;5018873;28;20524;-84
2023/11/24 05:17:45;;;;;;;24.17;2.10;;;8.20;99.90;;;;;;5019337;28;20177;-84
2023/11/24 05:20:14;;;;;;;22.80;1.90;;;8.10;99.90;;;;;;5036601;28;20404;-84
2023/11/24 05:22:40;;;;;;;26.30;2.20;;;8.10;99.90;;;;;;5019059;28;20177;-84
2023/11/24 05:25:07;;;;;;;26.97;3.17;;;8.20;99.90;;;;;;5037199;28;20181;-83
2023/11/24 05:27:33;;;;;;;27.33;2.75;;;8.10;99.90;;;;;;5018960;28;20433;-83
2023/11/24 05:29:59;;;;;;;25.33;1.83;;;8.10;99.90;;;;;;5036528;28;20173;-84
2023/11/24 05:32:25;;;;;;;24.80;2.23;;;8.10;99.90;;;;;;5036910;28;20193;-82
2023/11/24 05:34:53;;;;;;;25.27;2.07;;;8.00;99.90;;;;;;5019176;28;20674;-83
2023/11/24 05:37:19;;;;;;;30.35;3.15;;;8.00;99.90;;;;;;5037224;28;20438;-84
2023/11/24 05:39:45;;;;;;;35.47;3.37;;;8.00;99.90;;;;;;5036714;28;20272;-84
2023/11/24 05:42:12;;;;;;;22.20;1.73;;;8.00;99.90;;;;;;5036905;28;20170;-82
2023/11/24 05:44:38;;;;;;;28.67;1.95;;;8.00;99.90;;;;;;5019606;28;20213;-84
2023/11/24 05:47:04;;;;;;;24.98;2.20;;;8.00;99.90;;;;;;5018879;28;20189;-84
2023/11/24 05:49:41;;;;;;;27.35;2.67;;;8.10;99.90;;;;;;5036121;28;20166;-84
2023/11/24 05:52:14;;;;;;;26.80;2.72;;;8.10;99.90;;;;;;5036343;28;20563;-84
2023/11/24 05:54:40;;;;;;;26.52;2.60;;;8.10;99.90;;;;;;5036275;28;20598;-84
2023/11/24 05:57:06;;;;;;;22.70;1.95;;;8.10;99.90;;;;;;5019020;28;20193;-84
2023/11/24 05:59:32;;;;;;;29.03;1.83;;;8.00;99.90;;;;;;5018753;28;20200;-83
2023/11/24 06:01:58;;;;;;;25.17;2.20;;;8.00;99.90;;;;;;5035939;28;20950;-83
2023/11/24 06:04:23;;;;;;;29.10;3.30;;;8.00;99.90;;;;;;5036136;28;20187;-83
2023/11/24 06:06:49;;;;;;;30.60;2.60;;;8.00;99.90;;;;;;5017456;28;20805;-83
2023/11/24 06:09:15;;;;;;;24.80;2.30;;;8.00;99.90;;;;;;5035743;28;20170;-83
2023/11/24 06:11:41;;;;;;;31.20;2.90;;;8.00;99.90;;;;;;5018077;28;20199;-83
2023/11/24 06:14:07;;;;;;;26.20;2.38;;;8.00;99.90;;;;;;5017857;28;20547;-83
2023/11/24 06:16:33;;;;;;;32.85;2.63;;;8.00;99.90;;;;;;5035409;28;20165;-84
2023/11/24 06:18:59;;;;;;;23.40;2.20;;;8.00;99.90;;;;;;5035233;28;20162;-84
2023/11/24 06:21:32;;;;;;;22.90;1.83;;;8.00;99.90;;;;;;5034824;28;20532;-84
2023/11/24 06:23:58;;;;;;;22.50;3.08;;;8.00;99.90;;;;;;5035076;28;20941;-84
2023/11/24 06:26:23;;;;;;;28.83;2.60;;;8.00;99.90;;;;;;5017789;28;20184;-83
2023/11/24 06:28:53;;;;;;;26.63;1.70;;;8.00;99.90;;;;;;5035412;28;20166;-83
2023/11/24 06:31:19;;;;;;;26.23;2.17;;;8.00;99.90;;;;;;5035152;28;20415;-83
2023/11/24 06:33:48;;;;;;;21.23;1.80;;;8.10;99.90;;;;;;5017314;28;20576;-83
2023/11/24 06:36:13;;;;;;;24.30;2.70;;;8.10;99.90;;;;;;5035322;28;20158;-83
2023/11/24 06:38:46;;;;;;;30.57;2.83;;;8.10;99.90;;;;;;5034848;28;20249;-83
2023/11/24 06:41:12;;;;;;;25.05;1.88;;;8.20;99.90;;;;;;5034834;28;20196;-83
2023/11/24 06:43:41;;;;;;;25.30;2.13;;;8.20;99.90;;;;;;5016695;28;20189;-82
2023/11/24 06:46:07;;;;;;;20.95;1.40;;;8.20;99.90;;;;;;5034645;28;20184;-80
2023/11/24 06:48:35;;;;;;;25.50;2.37;;;8.20;99.90;;;;;;5034759;28;20162;-81
2023/11/24 06:51:01;;;;;;;23.73;2.20;;;8.10;99.90;;;;;;5035075;28;20170;-80
2023/11/24 06:53:27;;;;;;;22.58;2.10;;;8.10;99.90;;;;;;5016397;28;20598;-80
2023/11/24 06:55:53;;;;;;;23.00;1.80;;;8.00;99.90;;;;;;5034990;28;20169;-80
2023/11/24 06:58:19;;;;;;;27.90;2.60;;;8.00;99.90;;;;;;5016295;28;20826;-80
2023/11/24 07:00:51;;;;;;;27.97;1.97;;;8.10;99.90;;;;;;5033989;28;20161;-80
2023/11/24 07:03:17;;;;;;;33.65;2.83;;;8.00;99.90;;;;;;5599438;22;20179;-79
2023/11/24 07:05:44;;;;;;;33.00;2.40;;;7.90;99.90;;;;;;5020778;28;20166;-79
2023/11/24 07:08:09;;;;;;;33.65;2.53;;;7.90;99.90;;;;;;5019683;28;20181;-79
2023/11/24 07:10:36;;;;;;;27.00;2.43;;;7.90;99.90;;;;;;5020192;28;20154;-79
2023/11/24 07:13:02;;;;;;;30.58;2.58;;;7.90;99.90;;;;;;5019679;28;20183;-79
2023/11/24 07:15:28;;;;;;;32.33;2.72;;;7.90;99.90;;;;;;5002029;28;20158;-80
2023/11/24 07:17:53;;;;;;;24.50;2.70;;;7.90;99.90;;;;;;5020196;28;20611;-79
2023/11/24 07:20:20;;;;;;;27.60;2.57;;;7.90;99.90;;;;;;5002688;28;20619;-80
2023/11/24 07:22:48;;;;;;;23.80;1.77;;;7.90;99.90;;;;;;5001936;28;20572;-80
2023/11/24 07:25:14;;;;;;;26.30;2.33;;;7.90;99.90;;;;;;5019956;28;20559;-79
2023/11/24 07:27:41;;;;;;;26.27;2.23;;;8.00;99.90;;;;;;5020865;28;20189;-81
2023/11/24 07:30:08;;;;;;;25.30;2.15;;;8.00;99.90;;;;;;5021458;28;20485;-80
2023/11/24 07:32:34;;;;;;;27.98;2.10;;;8.00;99.90;;;;;;5021041;28;20221;-81
2023/11/24 07:34:59;;;;;;;30.98;3.22;;;7.90;99.90;;;;;;5020677;28;20187;-81
2023/11/24 07:37:26;;;;;;;25.90;2.67;;;8.00;99.90;;;;;;5020970;28;20229;-82
2023/11/24 07:39:53;;;;;;;27.50;2.60;;;8.00;99.90;;;;;;5020599;28;20175;-82
2023/11/24 07:42:19;;;;;;;30.98;2.65;;;8.00;99.90;;;;;;5003285;28;20550;-82
2023/11/24 07:44:44;;;;;;;25.47;3.17;;;7.90;99.90;;;;;;5020347;28;20191;-82
2023/11/24 07:47:14;;;;;;;30.60;2.90;;;7.90;99.90;;;;;;5020875;28;20197;-82
2023/11/24 07:49:40;;;;;;;29.67;2.65;;;7.90;99.90;;;;;;5020346;28;20401;-82
2023/11/24 07:52:06;;;;;;;27.63;2.60;;;7.90;99.90;;;;;;5020333;28;20213;-82
2023/11/24 07:54:32;;;;;;;25.17;2.47;;;7.90;99.90;;;;;;5020274;28;20178;-82
2023/11/24 07:56:58;;;;;;;31.08;2.80;;;7.90;99.90;;;;;;5020393;28;20653;-81
2023/11/24 07:59:23;;;;;;;26.30;2.70;;;7.90;99.90;;;;;;5020346;28;20193;-82
2023/11/24 08:01:49;;;;;;;24.10;2.50;;;7.90;99.90;;;;;;5019699;28;20662;-81
2023/11/24 08:04:15;;;;;;;37.93;2.73;;;7.90;99.90;;;;;;5019734;28;20201;-81
2023/11/24 08:06:41;;;;;;;31.30;2.13;;;7.90;99.90;;;;;;5019992;28;20163;-81
2023/11/24 08:09:08;;;;;;;26.70;3.50;;;7.90;99.90;;;;;;5019317;28;20217;-82
2023/11/24 08:11:34;;;;;;;29.73;3.25;;;7.80;99.90;;;;;;5020527;28;20155;-84
2023/11/24 08:14:00;;;;;;;21.20;1.40;;;7.50;99.90;;;;;;5002019;28;20202;-83
2023/11/24 08:16:26;;;;;;;23.88;1.52;;;7.00;99.90;;;;;;5020867;28;20167;-84
2023/11/24 08:18:52;;;;;;;25.63;1.80;;;6.50;99.90;;;;;;5020221;28;20239;-82
2023/11/24 08:21:18;;;;;;;23.52;1.45;;;6.30;99.90;;;;;;5002458;28;20173;-83
2023/11/24 08:23:45;;;;;;;25.70;1.90;;;6.20;99.90;;;;;;5019874;28;20532;-82
2023/11/24 08:26:19;;;;;;;22.38;1.40;;;6.10;99.90;;;;;;5020355;28;20171;-82
2023/11/24 08:28:45;;;;;;;25.08;2.22;;;6.20;99.90;;;;;;5020083;28;20166;-82
2023/11/24 08:31:19;;;;;;;22.55;1.70;;;6.20;99.90;;;;;;5019869;28;20158;-81
2023/11/24 08:33:45;;;;;;;27.10;2.17;;;6.30;99.90;;;;;;5020368;28;20205;-82
2023/11/24 08:36:12;;;;;;;26.20;2.00;;;6.40;99.90;;;;;;5019066;28;20166;-82
2023/11/24 08:38:38;;;;;;;24.63;2.22;;;6.30;99.90;;;;;;5019060;28;20167;-82
2023/11/24 08:41:17;;;;;;;24.63;1.97;;;6.50;99.90;;;;;;4999851;28;20170;-80
2023/11/24 08:43:46;;;;;;;28.23;1.75;;;6.50;99.90;;;;;;5016635;28;20182;-81
2023/11/24 08:46:12;;;;;;;23.65;1.73;;;6.60;99.90;;;;;;5016502;28;20167;-80
2023/11/24 08:48:39;;;;;;;26.30;1.87;;;6.60;99.90;;;;;;4998636;28;20730;-80
2023/11/24 08:51:08;;;;;;;28.40;1.98;;;6.80;99.90;;;;;;4998671;28;20453;-81
2023/11/24 08:53:35;;;;;;;31.05;2.08;;;6.90;99.90;;;;;;4998594;28;20209;-80
2023/11/24 08:56:03;;;;;;;27.70;2.33;;;7.00;99.90;;;;;;5016548;28;20174;-81
2023/11/24 08:58:30;;;;;;;28.80;2.05;;;7.10;99.90;;;;;;5016168;28;20213;-80
2023/11/24 09:00:55;;;;;;;27.25;2.50;;;7.20;99.90;;;;;;5016310;28;20163;-81
2023/11/24 09:03:24;;;;;;;27.17;2.77;;;7.30;99.90;;;;;;5016098;28;20202;-81
2023/11/24 09:05:57;;;;;;;27.75;2.33;;;7.40;99.90;;;;;;5016493;28;20166;-81
2023/11/24 09:08:23;;;;;;;29.50;2.53;;;7.40;99.90;;;;;;4998419;28;20170;-81
2023/11/24 09:10:49;;;;;;;28.73;2.17;;;7.50;99.90;;;;;;5015952;28;20167;-82
2023/11/24 09:13:15;;;;;;;24.70;1.93;;;7.70;99.90;;;;;;5015974;28;20202;-80
2023/11/24 09:15:43;;;;;;;26.03;2.10;;;7.60;99.90;;;;;;4998171;28;20169;-81
2023/11/24 09:18:10;;;;;;;31.67;3.25;;;7.70;99.90;;;;;;5015996;28;20586;-82
2023/11/24 09:20:37;;;;;;;32.80;2.67;;;7.80;99.90;;;;;;4999280;28;20512;-80
2023/11/24 09:23:04;;;;;;;28.08;2.63;;;7.80;99.90;;;;;;5015794;28;20208;-81
2023/11/24 09:25:33;;;;;;;27.30;2.50;;;7.80;99.90;;;;;;4998376;28;20207;-81
2023/11/24 09:28:01;;;;;;;31.05;1.90;;;7.80;99.90;;;;;;5015574;28;20590;-81
2023/11/24 09:30:27;;;;;;;28.58;2.38;;;7.70;99.90;;;;;;5015828;28;20223;-81
2023/11/24 09:32:56;;;;;;;32.42;2.40;;;7.80;99.90;;;;;;5016413;28;20218;-80
2023/11/24 09:35:25;;;;;;;25.55;1.80;;;7.80;99.90;;;;;;4999401;28;20158;-81
2023/11/24 09:37:54;;;;;;;26.75;2.03;;;7.80;99.90;;;;;;5016482;28;20165;-82
2023/11/24 09:40:22;;;;;;;23.58;1.63;;;7.80;99.90;;;;;;4998492;28;20578;-81
2023/11/24 09:42:49;;;;;;;27.42;1.85;;;7.80;99.90;;;;;;4998637;28;20170;-81
2023/11/24 09:45:19;;;;;;;26.88;2.03;;;7.70;99.90;;;;;;5016302;28;20196;-82
2023/11/24 09:47:52;;;;;;;24.20;1.90;;;7.70;99.90;;;;;;5016162;28;20162;-81
2023/11/24 09:50:23;;;;;;;31.08;2.83;;;7.70;99.90;;;;;;4998562;28;20546;-81
2023/11/24 09:52:57;;;;;;;28.80;2.08;;;7.70;99.90;;;;;;5098223;22;20188;-81
2023/11/24 09:55:26;;;;;;;26.85;1.83;;;7.80;99.90;;;;;;5088408;22;20221;-82
2023/11/24 09:57:55;;;;;;;22.10;1.60;;;7.80;99.90;;;;;;5038021;28;20158;-82
2023/11/24 10:00:21;;;;;;;22.75;1.85;;;7.80;99.90;;;;;;5037830;28;20692;-82
2023/11/24 10:02:51;;;;;;;28.43;2.50;;;7.80;99.90;;;;;;5038404;28;20173;-82
2023/11/24 10:05:18;;;;;;;25.50;2.00;;;7.80;99.90;;;;;;5018832;28;20174;-82
2023/11/24 10:07:46;;;;;;;25.17;2.17;;;7.80;99.90;;;;;;5018029;28;20167;-82
2023/11/24 10:10:27;;;;;;;23.42;1.88;;;7.80;99.90;;;;;;4999858;28;20181;-81
2023/11/24 10:12:56;;;;;;;23.77;2.45;;;7.80;99.90;;;;;;5017814;28;20654;-81
2023/11/24 10:15:22;;;;;;;23.83;1.75;;;7.70;99.90;;;;;;5000146;28;20167;-81
2023/11/24 10:17:48;;;;;;;23.60;1.70;;;7.80;99.90;;;;;;5000008;28;20162;-82
2023/11/24 10:20:18;;;;;;;22.65;2.22;;;7.70;99.90;;;;;;5000583;28;20176;-82
2023/11/24 10:22:49;;;;;;;20.80;1.48;;;7.60;99.90;;;;;;4999388;28;20177;-82
2023/11/24 10:25:19;;;;;;;21.80;1.55;;;7.60;99.90;;;;;;5017797;28;20182;-81
2023/11/24 10:27:46;;;;;;;21.65;1.80;;;7.60;99.90;;;;;;5000237;28;20163;-82
2023/11/24 10:30:12;;;;;;;23.30;1.90;;;7.60;99.90;;;;;;4999707;28;20257;-81
2023/11/24 10:32:43;;;;;;;22.17;1.38;;;7.60;99.90;;;;;;5017090;28;20239;-81
2023/11/24 10:35:12;;;;;;;24.65;1.55;;;7.50;99.90;;;;;;5017702;28;20682;-81
2023/11/24 10:37:39;;;;;;;28.77;2.00;;;7.40;99.90;;;;;;5020294;28;20531;-81
2023/11/24 10:40:10;;;;;;;24.42;1.60;;;7.40;99.90;;;;;;5003944;28;20201;-80
2023/11/24 10:42:39;;;;;;;21.73;1.55;;;7.40;99.90;;;;;;5021331;28;20143;-81
2023/11/24 10:45:11;;;;;;;22.40;1.42;;;7.50;99.90;;;;;;5021339;28;20201;-82
2023/11/24 10:47:44;;;;;;;23.40;1.75;;;7.60;99.90;;;;;;5021758;28;20170;-80
2023/11/24 10:50:16;;;;;;;21.10;1.85;;;7.60;99.90;;;;;;5021727;28;20151;-81
2023/11/24 10:53:28;;;;;;;19.10;1.48;;;7.50;99.90;;;;;;5021590;28;20270;-82
2023/11/24 10:55:56;;;;;;;20.15;1.85;;;7.50;99.90;;;;;;4944766;29;20184;-81
2023/11/24 10:58:23;;;;;;;23.25;2.20;;;7.40;99.90;;;;;;5014815;28;20178;-81
2023/11/24 11:00:49;;;;;;;20.27;2.15;;;7.30;99.90;;;;;;5003862;28;20170;-81
2023/11/24 11:03:16;;;;;;;19.52;1.60;;;7.30;99.90;;;;;;5004369;28;20292;-81
2023/11/24 11:05:47;;;;;;;20.33;1.50;;;7.30;99.90;;;;;;5020994;28;20189;-81
2023/11/24 11:08:34;;;;;;;19.15;1.05;;;7.30;99.90;;;;;;5001749;28;20273;-81
2023/11/24 11:11:15;;;;;;;19.15;1.73;;;7.30;99.90;;;;;;5001025;28;20166;-79
2023/11/24 11:13:43;;;;;;;18.42;1.00;;;7.40;99.90;;;;;;5019139;28;20199;-81
2023/11/24 11:16:12;;;;;;;19.15;1.70;;;7.50;99.90;;;;;;5019051;28;20166;-80
2023/11/24 11:18:38;;;;;;;18.88;1.20;;;7.60;99.90;;;;;;5018947;28;20170;-79
2023/11/24 11:21:37;;;;;;;22.42;1.60;;;7.50;99.90;;;;;;5001178;28;20217;-79
2023/11/24 11:24:08;;;;;;;20.48;1.40;;;7.50;99.90;;;;;;4985866;28;20194;-79
2023/11/24 11:26:45;;;;;;;21.40;2.05;;;7.50;99.90;;;;;;5001235;28;20304;-80
2023/11/24 11:29:17;;;;;;;19.67;1.90;;;7.40;99.90;;;;;;5019083;28;20223;-79
2023/11/24 11:31:46;;;;;;;25.38;1.80;;;7.30;99.90;;;;;;5001349;28;20639;-79
2023/11/24 11:34:19;;;;;;;20.40;1.95;;;7.40;99.90;;;;;;5019554;28;20206;-79
2023/11/24 11:37:11;;;;;;;20.42;1.45;;;7.40;99.90;;;;;;5018160;28;20163;-79
2023/11/24 11:39:44;;;;;;;20.15;2.40;;;7.50;99.90;;;;;;5018609;28;20151;-79
2023/11/24 11:42:10;;;;;;;19.63;1.45;;;7.60;99.90;;;;;;5000370;28;20170;-79
2023/11/24 11:44:39;;;;;;;21.30;1.70;;;7.70;99.90;;;;;;5018054;28;20182;-80
2023/11/24 11:47:19;;;;;;;21.75;1.65;;;7.70;99.90;;;;;;5016387;28;20174;-79
2023/11/24 11:49:51;;;;;;;20.35;1.55;;;7.80;99.90;;;;;;4999296;28;20171;-79
2023/11/24 11:52:18;;;;;;;20.95;1.73;;;7.90;99.90;;;;;;5017631;28;20192;-80
2023/11/24 11:54:47;;;;;;;20.67;1.30;;;8.00;99.90;;;;;;4999725;28;20206;-80
2023/11/24 11:57:14;;;;;;;18.55;1.58;;;8.00;99.90;;;;;;5017406;28;20158;-80
2023/11/24 11:59:39;;;;;;;17.98;1.35;;;7.90;99.90;;;;;;5017644;28;20162;-80
2023/11/24 12:02:08;;;;;;;19.43;1.53;;;7.90;99.90;;;;;;4999717;28;20253;-80
2023/11/24 12:04:35;;;;;;;18.10;1.17;;;7.80;99.90;;;;;;4999326;28;20483;-80
2023/11/24 12:07:01;;;;;;;19.63;1.77;;;7.60;99.90;;;;;;5017718;28;20163;-80
2023/11/24 12:09:28;;;;;;;18.40;1.58;;;7.50;99.90;;;;;;5017995;28;20194;-78
2023/11/24 12:11:56;;;;;;;19.45;1.25;;;7.50;99.90;;;;;;5000365;28;20202;-80
2023/11/24 12:14:21;;;;;;;19.02;1.48;;;7.40;99.90;;;;;;5000370;28;20187;-78
2023/11/24 12:16:47;;;;;;;19.37;1.40;;;7.50;99.90;;;;;;5017847;28;20235;-79
2023/11/24 12:19:14;;;;;;;18.90;1.10;;;7.30;99.90;;;;;;5018144;28;20879;-79
2023/11/24 12:21:42;;;;;;;22.98;3.35;;;7.30;99.90;;;;;;5017861;28;20401;-79
2023/11/24 12:24:09;;;;;;;19.70;1.10;;;7.10;99.90;;;;;;5019486;28;20186;-81
2023/11/24 12:26:38;;;;;;;18.00;0.90;;;6.80;99.90;;;;;;5019018;28;20221;-80
2023/11/24 12:29:13;;;;;;;20.10;1.00;;;6.60;99.90;;;;;;5019688;28;20171;-80
2023/11/24 12:31:40;;;;;;;19.77;1.10;;;6.50;99.90;;;;;;5019161;28;20150;-81
2023/11/24 12:34:29;;;;;;;21.55;1.50;;;6.40;99.90;;;;;;5019161;28;20682;-81
2023/11/24 12:36:55;;;;;;;18.45;1.05;;;6.40;99.90;;;;;;5019396;28;20489;-80
2023/11/24 12:39:34;;;;;;;26.42;1.48;;;6.30;99.90;;;;;;5019485;28;20757;-80
2023/11/24 12:42:00;;;;;;;19.23;1.20;;;6.40;99.90;;;;;;5019386;28;20182;-81
2023/11/24 12:44:28;;;;;;;18.73;1.42;;;6.40;99.90;;;;;;5019169;28;20206;-81
2023/11/24 12:47:12;;;;;;;18.35;1.20;;;6.40;99.90;;;;;;5019179;28;20162;-81
2023/11/24 12:50:06;;;;;;;19.65;1.23;;;6.40;99.90;;;;;;5001386;28;20159;-81